Time;durP1;ratioP1;P1;durP2;ratioP2;P2;SDS_P1;SDS_P2;PMS_P1;PMS_P2;Temp;Humidity;BMP_temperature;BMP_pressure;BME280_temperature;BME280_humidity;BME280_pressure;Samples;Min_cycle;Max_cycle;Signal;HPM_P1;HPM_P2
2021/08/25 00:00:53;;;;;;;12.32;5.90;;;;;;;11.33;100.00;102580.81;5223896;28;20032;-82
2021/08/25 00:03:25;;;;;;;14.98;6.68;;;;;;;11.34;100.00;102575.31;5220810;28;20040;-81
2021/08/25 00:05:55;;;;;;;11.75;6.35;;;;;;;11.35;100.00;102574.34;5213555;28;20033;-81
2021/08/25 00:08:26;;;;;;;11.25;6.28;;;;;;;11.36;100.00;102576.03;5210725;28;20021;-82
2021/08/25 00:10:56;;;;;;;14.45;6.40;;;;;;;11.36;100.00;102570.66;5225532;28;20104;-81
2021/08/25 00:13:27;;;;;;;12.60;6.32;;;;;;;11.41;100.00;102575.66;5224219;28;20068;-81
2021/08/25 00:15:57;;;;;;;10.52;6.13;;;;;;;11.42;100.00;102569.28;5223275;28;20033;-82
2021/08/25 00:18:28;;;;;;;13.80;7.13;;;;;;;11.43;100.00;102565.63;5223579;28;20032;-82
2021/08/25 00:20:59;;;;;;;10.63;5.90;;;;;;;11.43;100.00;102565.63;5223403;28;20096;-81
2021/08/25 00:23:30;;;;;;;13.68;6.45;;;;;;;11.48;100.00;102552.63;5218221;28;20029;-81
2021/08/25 00:26:00;;;;;;;12.35;6.60;;;;;;;11.50;100.00;102558.75;5204632;28;20017;-81
2021/08/25 00:28:31;;;;;;;10.40;5.85;;;;;;;11.50;100.00;102552.53;5226649;28;20024;-81
2021/08/25 00:31:01;;;;;;;14.25;6.35;;;;;;;11.54;100.00;102552.09;5226241;28;20382;-81
2021/08/25 00:33:32;;;;;;;17.08;7.20;;;;;;;11.50;100.00;102547.16;5227279;28;20033;-81
2021/08/25 00:36:02;;;;;;;13.88;6.43;;;;;;;11.48;100.00;102549.94;5213014;28;20151;-81
2021/08/25 00:38:33;;;;;;;17.65;7.20;;;;;;;11.44;100.00;102543.13;5226148;28;20029;-82
2021/08/25 00:41:03;;;;;;;12.95;6.18;;;;;;;11.41;100.00;102538.03;5212832;28;20040;-82
2021/08/25 00:43:34;;;;;;;14.70;7.07;;;;;;;11.40;100.00;102541.72;5226574;28;20025;-82
2021/08/25 00:46:06;;;;;;;13.43;7.10;;;;;;;11.42;100.00;102537.03;5208893;28;20017;-82
2021/08/25 00:48:37;;;;;;;11.23;6.15;;;;;;;11.43;100.00;102540.59;5226136;28;20293;-81
2021/08/25 00:51:08;;;;;;;10.20;6.35;;;;;;;11.41;100.00;102538.03;5225789;28;20482;-81
2021/08/25 00:53:38;;;;;;;10.80;5.88;;;;;;;11.41;100.00;102543.41;5222574;28;20037;-82
2021/08/25 00:56:09;;;;;;;17.05;7.55;;;;;;;11.37;100.00;102540.13;5216737;28;20079;-82
2021/08/25 00:58:41;;;;;;;15.90;7.47;;;;;;;11.34;100.00;102542.22;5226310;28;20036;-81
2021/08/25 01:01:21;;;;;;;13.50;6.40;;;;;;;11.31;100.00;102535.28;5226001;28;20345;-81
2021/08/25 01:03:57;;;;;;;12.27;6.82;;;;;;;11.28;100.00;102526.63;5226439;28;20115;-81
2021/08/25 01:06:29;;;;;;;14.82;6.63;;;;;;;11.22;100.00;102535.19;5227451;28;20017;-82
2021/08/25 01:09:06;;;;;;;13.23;7.07;;;;;;;11.22;100.00;102530.66;5226451;28;20036;-82
2021/08/25 01:11:52;;;;;;;14.77;6.53;;;;;;;11.30;100.00;102528.19;5219570;28;20048;-82
2021/08/25 01:14:34;;;;;;;13.73;7.53;;;;;;;11.22;100.00;102519.94;5221496;28;20033;-81
2021/08/25 01:17:13;;;;;;;16.40;7.40;;;;;;;11.12;100.00;102525.22;5226570;28;20028;-81
2021/08/25 01:20:08;;;;;;;12.65;7.45;;;;;;;11.01;100.00;102519.91;5226524;28;20029;-81
2021/08/25 01:22:59;;;;;;;14.25;7.72;;;;;;;10.91;100.00;102521.66;5211882;28;20033;-81
2021/08/25 01:25:31;;;;;;;18.15;7.90;;;;;;;10.87;100.00;102515.69;5214700;28;20021;-81
2021/08/25 01:28:06;;;;;;;13.35;7.32;;;;;;;10.82;100.00;102531.31;5211300;28;20454;-81
2021/08/25 01:30:46;;;;;;;11.98;7.13;;;;;;;10.79;100.00;102522.66;5225615;28;20025;-81
2021/08/25 01:33:20;;;;;;;14.10;7.55;;;;;;;10.79;100.00;102526.22;5225865;28;20028;-81
2021/08/25 01:35:51;;;;;;;17.27;8.75;;;;;;;10.77;100.00;102522.78;5226055;28;20361;-81
2021/08/25 01:38:45;;;;;;;13.50;7.10;;;;;;;10.75;100.00;102519.41;5226101;28;20275;-81
2021/08/25 01:41:18;;;;;;;13.02;7.15;;;;;;;10.72;100.00;102511.59;5212350;28;20032;-81
2021/08/25 01:43:52;;;;;;;13.60;8.00;;;;;;;10.70;100.00;102516.22;5211945;28;20026;-81
2021/08/25 01:46:27;;;;;;;17.00;8.10;;;;;;;10.72;100.00;102506.22;5225012;28;20021;-81
2021/08/25 01:48:59;;;;;;;;;;;;;;;10.69;100.00;102513.66;5226133;28;20029;-81
2021/08/25 01:51:30;;;;;;;18.77;8.27;;;;;;;10.67;100.00;102519.16;5207006;28;19914;-81
2021/08/25 01:54:02;;;;;;;15.35;7.82;;;;;;;10.71;100.00;102517.94;5225817;28;20055;-82
2021/08/25 01:56:33;;;;;;;18.08;8.35;;;;;;;10.81;100.00;102515.34;5225859;28;20033;-81
2021/08/25 01:59:03;;;;;;;18.92;8.95;;;;;;;10.81;100.00;102499.25;5217529;28;20052;-81
2021/08/25 02:01:34;;;;;;;15.48;8.60;;;;;;;10.82;100.00;102507.16;5218867;28;20032;-81
2021/08/25 02:04:05;;;;;;;19.65;10.02;;;;;;;10.81;100.00;102501.91;5214828;28;20036;-81
2021/08/25 02:06:36;;;;;;;22.75;8.68;;;;;;;10.80;100.00;102503.75;5226396;28;20028;-81
2021/08/25 02:09:06;;;;;;;15.43;8.32;;;;;;;10.78;100.00;102511.06;5225577;28;20032;-80
2021/08/25 02:11:37;;;;;;;13.73;7.90;;;;;;;10.79;100.00;102495.81;5222988;28;20030;-81
2021/08/25 02:14:08;;;;;;;13.65;8.35;;;;;;;10.77;100.00;102493.25;5207242;28;20013;-81
2021/08/25 02:16:38;;;;;;;18.52;8.32;;;;;;;10.75;100.00;102499.75;5207976;28;20021;-81
2021/08/25 02:19:09;;;;;;;15.88;8.43;;;;;;;10.78;100.00;102502.16;5227452;28;20107;-81
2021/08/25 02:21:39;;;;;;;21.42;8.73;;;;;;;10.66;100.00;102498.69;5229219;28;20031;-81
2021/08/25 02:24:10;;;;;;;16.02;8.20;;;;;;;10.64;100.00;102497.94;5232241;28;20035;-82
2021/08/25 02:26:41;;;;;;;15.13;8.65;;;;;;;10.63;100.00;102499.75;5225080;28;20014;-81
2021/08/25 02:29:11;;;;;;;15.88;8.88;;;;;;;10.60;100.00;102488.44;5226132;28;20036;-81
2021/08/25 02:31:42;;;;;;;16.55;9.63;;;;;;;10.57;100.00;102486.84;5231805;28;20517;-81
2021/08/25 02:34:12;;;;;;;16.33;9.80;;;;;;;10.52;100.00;102490.91;5232277;28;20056;-81
2021/08/25 02:36:43;;;;;;;16.02;8.75;;;;;;;10.43;100.00;102484.44;5231575;28;20039;-81
2021/08/25 02:39:13;;;;;;;19.42;9.00;;;;;;;10.36;100.00;102489.47;5231772;28;20060;-81
2021/08/25 02:41:44;;;;;;;19.98;9.75;;;;;;;10.31;100.00;102480.09;5212193;28;20028;-81
2021/08/25 02:44:14;;;;;;;16.00;9.07;;;;;;;10.38;100.00;102475.94;5232211;28;20469;-81
2021/08/25 02:46:45;;;;;;;16.83;9.77;;;;;;;10.36;100.00;102476.06;5214542;28;20482;-81
2021/08/25 02:49:15;;;;;;;17.10;9.45;;;;;;;10.40;100.00;102465.94;5231579;28;20071;-81
2021/08/25 02:51:46;;;;;;;15.52;9.00;;;;;;;10.33;100.00;102470.94;5212764;28;20017;-81
2021/08/25 02:54:16;;;;;;;20.25;9.13;;;;;;;10.42;100.00;102465.81;5231507;28;20096;-81
2021/08/25 02:56:47;;;;;;;16.42;9.27;;;;;;;10.40;100.00;102468.63;5231397;28;20483;-81
2021/08/25 02:59:17;;;;;;;18.45;9.85;;;;;;;10.41;100.00;102469.47;5231106;28;20028;-81
2021/08/25 03:01:48;;;;;;;19.77;9.98;;;;;;;10.36;100.00;102469.84;5228549;28;20108;-81
2021/08/25 03:04:18;;;;;;;21.13;9.63;;;;;;;10.37;100.00;102458.97;5229669;28;20098;-82
2021/08/25 03:06:49;;;;;;;19.15;10.07;;;;;;;10.44;100.00;102472.75;5230215;28;20033;-81
2021/08/25 03:09:19;;;;;;;21.00;9.50;;;;;;;10.43;100.00;102468.34;5211573;28;20024;-81
2021/08/25 03:11:49;;;;;;;18.90;9.93;;;;;;;10.42;100.00;102468.50;5226736;28;20029;-81
2021/08/25 03:14:20;;;;;;;16.90;9.48;;;;;;;10.31;100.00;102462.16;5225754;28;20359;-82
2021/08/25 03:16:50;;;;;;;23.92;9.80;;;;;;;10.30;100.00;102465.00;5219780;28;20309;-81
2021/08/25 03:19:21;;;;;;;19.30;10.35;;;;;;;10.31;100.00;102459.50;5167069;28;20036;-82
2021/08/25 03:21:51;;;;;;;18.25;9.18;;;;;;;10.24;100.00;102452.06;5211859;28;20027;-82
2021/08/25 03:24:22;;;;;;;18.50;10.20;;;;;;;10.25;100.00;102451.09;5224764;28;20021;-81
2021/08/25 03:26:52;;;;;;;18.42;10.20;;;;;;;10.18;100.00;102444.47;5224841;28;20397;-81
2021/08/25 03:29:23;;;;;;;21.50;10.55;;;;;;;10.15;100.00;102442.91;5224077;28;20036;-81
2021/08/25 03:31:53;;;;;;;22.92;12.13;;;;;;;10.20;100.00;102445.22;5224833;28;20104;-81
2021/08/25 03:34:24;;;;;;;19.45;10.02;;;;;;;10.29;100.00;102444.47;5225484;28;20020;-82
2021/08/25 03:36:54;;;;;;;20.30;10.23;;;;;;;10.22;100.00;102443.25;5227702;28;20051;-81
2021/08/25 03:39:25;;;;;;;18.35;11.05;;;;;;;10.16;100.00;102441.09;5226851;28;20044;-82
2021/08/25 03:41:55;;;;;;;22.63;10.90;;;;;;;10.10;100.00;102442.44;5226575;28;20021;-82
2021/08/25 03:44:26;;;;;;;23.95;10.88;;;;;;;10.05;100.00;102440.13;5227063;28;20021;-82
2021/08/25 03:46:56;;;;;;;22.15;12.00;;;;;;;9.99;100.00;102442.41;5227251;28;20021;-81
2021/08/25 03:49:27;;;;;;;23.20;12.02;;;;;;;9.86;100.00;102437.22;5227599;28;20537;-82
2021/08/25 03:51:57;;;;;;;19.27;11.18;;;;;;;9.75;100.00;102439.91;5224401;28;20056;-81
2021/08/25 03:54:28;;;;;;;23.20;11.25;;;;;;;9.64;100.00;102434.53;5205969;28;20075;-81
2021/08/25 03:56:58;;;;;;;21.27;12.18;;;;;;;9.52;100.00;102437.19;5223735;28;20027;-83
2021/08/25 03:59:28;;;;;;;19.90;11.27;;;;;;;9.42;100.00;102435.38;5227697;28;20087;-81
2021/08/25 04:01:59;;;;;;;21.63;12.15;;;;;;;9.39;100.00;102438.28;5221544;28;20383;-82
2021/08/25 04:04:29;;;;;;;26.52;14.25;;;;;;;9.34;100.00;102438.66;5220136;28;20072;-82
2021/08/25 04:07:00;;;;;;;27.45;15.23;;;;;;;9.31;100.00;102441.56;5227193;28;20029;-81
2021/08/25 04:09:30;;;;;;;30.00;14.48;;;;;;;9.30;100.00;102438.03;5226464;28;20103;-82
2021/08/25 04:12:01;;;;;;;23.85;13.00;;;;;;;9.29;100.00;102443.53;5218605;28;20021;-81
2021/08/25 04:14:32;;;;;;;26.50;14.65;;;;;;;9.28;100.00;102444.47;5220696;28;20470;-82
2021/08/25 04:17:02;;;;;;;30.02;16.08;;;;;;;9.30;100.00;102442.53;5227068;28;20070;-82
2021/08/25 04:19:33;;;;;;;26.75;14.82;;;;;;;9.29;100.00;102443.53;5225910;28;20402;-82
2021/08/25 04:22:04;;;;;;;29.80;14.73;;;;;;;9.24;100.00;102440.34;5226642;28;20413;-81
2021/08/25 04:24:36;;;;;;;29.08;15.80;;;;;;;9.21;100.00;102437.91;5226530;28;20029;-81
2021/08/25 04:27:06;;;;;;;29.63;15.75;;;;;;;9.16;100.00;102432.03;5226494;28;20331;-81
2021/08/25 04:29:37;;;;;;;33.97;16.70;;;;;;;9.14;100.00;102428.66;5207792;28;20127;-82
2021/08/25 04:32:08;;;;;;;29.95;16.10;;;;;;;9.11;100.00;102428.88;5223753;28;20029;-81
2021/08/25 04:34:38;;;;;;;30.17;15.57;;;;;;;9.07;100.00;102425.56;5222995;28;20025;-81
2021/08/25 04:37:09;;;;;;;26.73;13.70;;;;;;;9.04;100.00;102431.19;5225350;28;20031;-81
2021/08/25 04:39:39;;;;;;;34.33;15.57;;;;;;;8.97;100.00;102436.13;5216017;28;20105;-81
2021/08/25 04:42:10;;;;;;;28.65;14.30;;;;;;;8.93;100.00;102436.47;5218946;28;20036;-81
2021/08/25 04:44:40;;;;;;;30.83;15.82;;;;;;;8.92;100.00;102424.91;5215541;28;20036;-82
2021/08/25 04:47:11;;;;;;;28.55;15.20;;;;;;;8.91;100.00;102435.75;5218390;28;20029;-81
2021/08/25 04:49:41;;;;;;;31.73;16.00;;;;;;;8.91;100.00;102433.91;5215329;28;20116;-81
2021/08/25 04:52:13;;;;;;;32.13;17.40;;;;;;;8.93;100.00;102426.63;5211146;28;20518;-81
2021/08/25 04:54:44;;;;;;;38.25;18.55;;;;;;;8.98;100.00;102431.63;5212398;28;20045;-81
2021/08/25 04:57:14;;;;;;;32.75;17.00;;;;;;;9.01;100.00;102429.56;5222811;28;20465;-81
2021/08/25 04:59:45;;;;;;;39.20;17.63;;;;;;;9.05;100.00;102433.72;5223695;28;20335;-81
2021/08/25 05:02:15;;;;;;;34.45;18.35;;;;;;;9.08;100.00;102429.94;5223201;28;20440;-81
2021/08/25 05:04:47;;;;;;;37.20;17.55;;;;;;;9.12;100.00;102438.59;5209604;28;20029;-83
2021/08/25 05:07:17;;;;;;;36.22;18.92;;;;;;;9.14;100.00;102434.00;5223022;28;20490;-82
2021/08/25 05:09:48;;;;;;;35.00;18.80;;;;;;;9.17;100.00;102442.63;5223712;28;20020;-83
2021/08/25 05:12:19;;;;;;;36.83;17.27;;;;;;;9.19;100.00;102434.50;5222817;28;20082;-80
2021/08/25 05:14:50;;;;;;;34.63;18.30;;;;;;;9.21;100.00;102444.09;5218219;28;20104;-81
2021/08/25 05:17:21;;;;;;;34.50;17.80;;;;;;;9.29;100.00;102438.16;5213646;28;20035;-80
2021/08/25 05:19:51;;;;;;;30.38;16.50;;;;;;;9.34;100.00;102442.19;5222601;28;20490;-80
2021/08/25 05:22:22;;;;;;;40.15;19.42;;;;;;;9.42;100.00;102433.53;5223025;28;20037;-80
2021/08/25 05:24:52;;;;;;;32.10;18.90;;;;;;;9.53;100.00;102430.88;5216317;28;20045;-80
2021/08/25 05:27:23;;;;;;;34.08;19.08;;;;;;;10.22;100.00;102427.16;5215300;28;20488;-81
2021/08/25 05:29:53;;;;;;;28.45;14.05;;;;;;;11.12;100.00;102423.16;5222748;28;20025;-81
2021/08/25 05:32:24;;;;;;;19.50;11.50;;;;;;;12.14;100.00;102429.44;5204429;28;20413;-80
2021/08/25 05:34:54;;;;;;;21.02;10.00;;;;;;;13.20;100.00;102422.34;5204594;28;20387;-81
2021/08/25 05:37:25;;;;;;;15.07;8.50;;;;;;;13.93;100.00;102423.41;5223141;28;20025;-80
2021/08/25 05:39:55;;;;;;;16.33;8.15;;;;;;;14.36;100.00;102429.97;5223198;28;20052;-80
2021/08/25 05:42:26;;;;;;;12.70;7.65;;;;;;;15.39;100.00;102430.34;5222113;28;20041;-81
2021/08/25 05:44:56;;;;;;;12.77;7.25;;;;;;;15.87;100.00;102437.09;5223014;28;20033;-81
2021/08/25 05:47:26;;;;;;;18.02;7.57;;;;;;;16.27;100.00;102437.22;5217359;28;20036;-82
2021/08/25 05:49:57;;;;;;;12.23;7.10;;;;;;;16.88;100.00;102437.84;5215134;28;20534;-81
2021/08/25 05:52:27;;;;;;;18.02;7.32;;;;;;;17.11;100.00;102442.56;5216143;28;20353;-83
2021/08/25 05:54:58;;;;;;;13.13;6.53;;;;;;;17.69;100.00;102439.56;5215367;28;20154;-82
2021/08/25 05:57:28;;;;;;;11.43;6.78;;;;;;;17.95;100.00;102430.34;5209328;28;20021;-84
2021/08/25 05:59:59;;;;;;;12.13;6.88;;;;;;;18.36;100.00;102437.25;5222612;28;20459;-81
2021/08/25 06:02:29;;;;;;;16.40;7.35;;;;;;;18.07;100.00;102435.22;5223364;28;20446;-81
2021/08/25 06:05:00;;;;;;;25.50;8.57;;;;;;;18.15;100.00;102438.91;5222492;28;20025;-81
2021/08/25 06:07:30;;;;;;;18.50;7.78;;;;;;;17.61;100.00;102437.72;5213293;28;20104;-82
2021/08/25 06:10:01;;;;;;;17.23;7.15;;;;;;;17.85;100.00;102435.97;5221103;28;20055;-81
2021/08/25 06:12:32;;;;;;;21.05;7.45;;;;;;;17.66;100.00;102434.47;5211784;28;20075;-81
2021/08/25 06:15:03;;;;;;;15.93;7.32;;;;;;;17.02;100.00;102441.75;5206932;28;20463;-82
2021/08/25 06:17:34;;;;;;;15.93;7.95;;;;;;;16.69;100.00;102443.56;5222078;28;20035;-81
2021/08/25 06:20:05;;;;;;;18.75;7.40;;;;;;;16.13;100.00;102445.97;5215155;28;20104;-82
2021/08/25 06:22:36;;;;;;;17.23;8.68;;;;;;;15.53;100.00;102433.31;5215415;28;20033;-82
2021/08/25 06:25:08;;;;;;;19.05;8.20;;;;;;;15.16;100.00;102427.31;5221689;28;20021;-81
2021/08/25 06:27:38;;;;;;;20.23;9.45;;;;;;;14.73;100.00;102440.66;5222183;28;20109;-82
2021/08/25 06:30:09;;;;;;;23.23;9.18;;;;;;;14.57;100.00;102431.56;5221713;28;20636;-81
2021/08/25 06:32:39;;;;;;;24.15;9.82;;;;;;;14.36;100.00;102435.38;5221473;28;20020;-81
2021/08/25 06:35:10;;;;;;;22.92;10.07;;;;;;;14.31;100.00;102440.38;5221209;28;20116;-81
2021/08/25 06:37:41;;;;;;;16.15;9.57;;;;;;;14.27;100.00;102435.44;5208296;28;20079;-82
2021/08/25 06:40:13;;;;;;;14.45;9.10;;;;;;;14.28;100.00;102437.13;5221817;28;20033;-82
2021/08/25 06:42:44;;;;;;;18.95;9.57;;;;;;;14.39;100.00;102434.22;5221340;28;20029;-80
2021/08/25 06:45:14;;;;;;;18.13;9.13;;;;;;;14.48;100.00;102442.28;5203713;28;20467;-82
2021/08/25 06:47:45;;;;;;;17.80;9.27;;;;;;;14.54;100.00;102432.72;5212722;28;20081;-82
2021/08/25 06:50:15;;;;;;;21.00;9.68;;;;;;;14.67;100.00;102438.59;5226670;28;20025;-82
2021/08/25 06:52:46;;;;;;;22.77;10.18;;;;;;;14.77;100.00;102441.22;5225302;28;20021;-82
2021/08/25 06:55:16;;;;;;;17.70;10.23;;;;;;;14.92;100.00;102434.25;5226378;28;20438;-81
2021/08/25 06:57:47;;;;;;;22.08;9.43;;;;;;;15.10;100.00;102439.59;5227912;28;20017;-82
2021/08/25 07:00:18;;;;;;;22.13;9.23;;;;;;;15.17;100.00;102440.69;5226169;28;20024;-81
2021/08/25 07:02:49;;;;;;;22.88;10.45;;;;;;;15.20;100.00;102436.81;5212924;28;20130;-81
2021/08/25 07:05:19;;;;;;;17.85;9.32;;;;;;;15.23;100.00;102437.34;5207601;28;20022;-80
2021/08/25 07:07:50;;;;;;;16.20;9.38;;;;;;;15.29;100.00;102436.72;5201756;28;20035;-83
2021/08/25 07:10:22;;;;;;;23.90;9.02;;;;;;;15.45;100.00;102435.13;5230493;28;20067;-82
2021/08/25 07:12:52;;;;;;;19.35;9.40;;;;;;;15.64;100.00;102436.78;5232264;28;20032;-83
2021/08/25 07:15:23;;;;;;;22.77;9.02;;;;;;;15.79;100.00;102433.31;5231777;28;20025;-83
2021/08/25 07:17:53;;;;;;;20.23;10.68;;;;;;;15.84;100.00;102435.53;5231325;28;20020;-82
2021/08/25 07:20:24;;;;;;;20.55;8.77;;;;;;;16.02;100.00;102427.31;5230087;28;20037;-82
2021/08/25 07:22:55;;;;;;;23.58;9.45;;;;;;;16.19;100.00;102436.34;5230913;28;20029;-82
2021/08/25 07:25:25;;;;;;;20.25;9.20;;;;;;;16.25;100.00;102439.22;5232581;28;20013;-82
2021/08/25 07:27:55;;;;;;;24.88;9.32;;;;;;;16.44;100.00;102438.09;5233913;28;20029;-82
2021/08/25 07:30:26;;;;;;;18.95;8.75;;;;;;;16.58;100.00;102437.44;5224427;28;20087;-82
2021/08/25 07:32:56;;;;;;;19.63;9.32;;;;;;;16.60;100.00;102439.97;5213787;28;20037;-83
2021/08/25 07:35:30;;;;;;;17.55;9.05;;;;;;;16.68;100.00;102440.00;5234124;28;20029;-82
2021/08/25 07:38:00;;;;;;;18.23;8.95;;;;;;;16.99;100.00;102439.38;5229627;28;20079;-82
2021/08/25 07:40:30;;;;;;;21.60;8.82;;;;;;;17.14;100.00;102447.66;5229891;28;20033;-82
2021/08/25 07:43:01;;;;;;;20.08;8.50;;;;;;;17.19;100.00;102437.16;5230512;28;20031;-82
2021/08/25 07:45:34;;;;;;;20.25;8.52;;;;;;;17.24;100.00;102437.47;5228502;28;20142;-82
2021/08/25 07:48:05;;;;;;;18.13;8.68;;;;;;;17.20;100.00;102434.25;5219510;28;20044;-82
2021/08/25 07:50:35;;;;;;;28.05;10.13;;;;;;;17.31;100.00;102430.34;5213524;28;20063;-83
2021/08/25 07:53:06;;;;;;;20.02;8.50;;;;;;;17.37;100.00;102424.25;5218418;28;20118;-82
2021/08/25 07:55:36;;;;;;;19.75;8.80;;;;;;;17.42;100.00;102434.56;5227543;28;20025;-82
2021/08/25 07:58:07;;;;;;;16.77;8.02;;;;;;;17.38;100.00;102435.94;5229132;28;20021;-83
2021/08/25 08:00:37;;;;;;;18.65;8.20;;;;;;;17.49;100.00;102430.13;5230622;28;20475;-83
2021/08/25 08:03:08;;;;;;;16.42;7.95;;;;;;;17.55;100.00;102434.88;5228272;28;20128;-81
2021/08/25 08:05:41;;;;;;;25.50;7.95;;;;;;;17.77;100.00;102431.44;5229825;28;20047;-81
2021/08/25 08:08:12;;;;;;;19.85;8.38;;;;;;;17.76;100.00;102427.03;5231171;28;20079;-83
2021/08/25 08:10:43;;;;;;;16.27;8.70;;;;;;;17.84;100.00;102427.00;5230185;28;20445;-81
2021/08/25 08:13:13;;;;;;;16.83;7.43;;;;;;;17.89;100.00;102431.06;5231812;28;20130;-83
2021/08/25 08:15:44;;;;;;;18.42;8.48;;;;;;;18.11;100.00;102427.53;5232179;28;20035;-83
2021/08/25 08:18:20;;;;;;;17.95;8.05;;;;;;;18.26;100.00;102427.63;5231794;28;20449;-82
2021/08/25 08:20:51;;;;;;;18.10;7.93;;;;;;;18.32;100.00;102429.63;5199063;28;20029;-82
2021/08/25 08:23:21;;;;;;;18.15;8.80;;;;;;;18.34;100.00;102428.44;5227257;28;20487;-82
2021/08/25 08:25:52;;;;;;;13.95;8.15;;;;;;;18.48;100.00;102432.28;5208869;28;20487;-83
2021/08/25 08:28:23;;;;;;;16.50;7.93;;;;;;;18.64;100.00;102440.31;5208110;28;20025;-82
2021/08/25 08:30:53;;;;;;;17.88;8.15;;;;;;;18.82;100.00;102431.84;5223724;28;20104;-83
2021/08/25 08:33:24;;;;;;;15.57;7.55;;;;;;;18.95;100.00;102423.09;5227404;28;20090;-81
2021/08/25 08:35:54;;;;;;;18.30;7.78;;;;;;;19.02;100.00;102425.91;5227374;28;20036;-82
2021/08/25 08:38:25;;;;;;;18.35;8.23;;;;;;;19.16;100.00;102425.09;5227225;28;20466;-81
2021/08/25 08:40:55;;;;;;;22.75;7.63;;;;;;;19.27;100.00;102418.38;5227286;28;20388;-82
2021/08/25 08:43:26;;;;;;;18.10;8.02;;;;;;;19.33;100.00;102423.09;5227941;28;20032;-84
2021/08/25 08:45:56;;;;;;;20.02;7.60;;;;;;;19.43;100.00;102423.66;5228023;28;20048;-81
2021/08/25 08:48:29;;;;;;;17.52;7.32;;;;;;;19.40;100.00;102427.59;5212963;28;20128;-83
2021/08/25 08:51:00;;;;;;;13.35;6.22;;;;;;;19.52;100.00;102419.78;5209334;28;20113;-80
2021/08/25 08:53:31;;;;;;;16.90;6.88;;;;;;;19.59;100.00;102419.91;5229484;28;20090;-82
2021/08/25 08:56:02;;;;;;;18.33;7.10;;;;;;;19.71;100.00;102412.13;5224549;28;20037;-81
2021/08/25 08:58:33;;;;;;;13.27;5.95;;;;;;;19.75;100.00;102411.56;5225380;28;20037;-83
2021/08/25 09:01:03;;;;;;;18.00;6.40;;;;;;;19.94;100.00;102414.75;5230970;28;20028;-81
2021/08/25 09:03:36;;;;;;;12.50;5.70;;;;;;;19.88;100.00;102416.31;5227961;28;20028;-81
2021/08/25 09:06:08;;;;;;;12.23;5.57;;;;;;;19.85;100.00;102416.72;5228094;28;20024;-81
2021/08/25 09:08:40;;;;;;;17.42;5.45;;;;;;;19.88;100.00;102419.91;5229120;28;20088;-81
2021/08/25 09:11:13;;;;;;;15.93;5.85;;;;;;;19.93;100.00;102424.81;5228233;28;20029;-82
2021/08/25 09:13:47;;;;;;;15.75;6.28;;;;;;;20.08;100.00;102427.47;5227422;28;20025;-81
2021/08/25 09:16:26;;;;;;;13.73;5.43;;;;;;;20.28;100.00;102422.25;5213206;28;20379;-82
2021/08/25 09:19:04;;;;;;;12.88;5.95;;;;;;;20.41;100.00;102430.59;5208623;28;20025;-81
2021/08/25 09:21:37;;;;;;;12.45;5.40;;;;;;;20.60;100.00;102424.53;5225008;28;20029;-83
2021/08/25 09:24:09;;;;;;;15.55;5.88;;;;;;;20.68;100.00;102427.16;5221129;28;20107;-80
2021/08/25 09:27:07;;;;;;;12.10;5.57;;;;;;;20.85;100.00;102421.41;5229657;28;20024;-81
2021/08/25 09:29:41;;;;;;;12.30;5.78;;;;;;;20.91;100.00;102413.28;5215760;28;20024;-82
2021/08/25 09:32:22;;;;;;;15.05;6.40;;;;;;;20.98;100.00;102415.22;5215333;28;20091;-82
2021/08/25 09:35:00;;;;;;;13.43;5.72;;;;;;;20.85;96.43;102396.88;5213592;28;20028;-81
2021/08/25 09:37:33;;;;;;;10.43;5.40;;;;;;;20.82;100.00;102409.00;5224403;28;20021;-81
2021/08/25 09:40:13;;;;;;;15.27;5.57;;;;;;;20.93;100.00;102408.50;5222810;28;20017;-81
2021/08/25 09:42:46;;;;;;;10.00;5.10;;;;;;;21.02;100.00;102394.69;5222368;28;20063;-80
2021/08/25 09:45:18;;;;;;;10.73;5.25;;;;;;;21.19;98.43;102391.47;5222123;28;20086;-81
2021/08/25 09:47:52;;;;;;;10.88;5.35;;;;;;;21.36;100.00;102391.19;5222886;28;20509;-81
2021/08/25 09:50:26;;;;;;;11.77;5.20;;;;;;;21.46;100.00;102391.66;5209141;28;20029;-82
2021/08/25 09:52:57;;;;;;;13.55;4.78;;;;;;;21.53;100.00;102391.69;5193501;28;20120;-81
2021/08/25 09:55:30;;;;;;;13.50;5.03;;;;;;;21.59;77.64;102382.72;5219533;28;20021;-82
2021/08/25 09:58:01;;;;;;;9.35;4.18;;;;;;;21.52;92.65;102385.41;5225310;28;20043;-81
2021/08/25 10:00:32;;;;;;;8.90;4.00;;;;;;;21.44;74.26;102388.31;5230010;28;20064;-81
2021/08/25 10:03:02;;;;;;;8.68;4.13;;;;;;;21.45;84.04;102379.91;5231340;28;20457;-82
2021/08/25 10:05:33;;;;;;;8.27;3.83;;;;;;;21.47;77.61;102385.16;5232762;28;20028;-83
2021/08/25 10:08:04;;;;;;;7.32;3.45;;;;;;;21.55;80.75;102379.53;5228505;28;20112;-80
2021/08/25 10:10:35;;;;;;;8.45;4.00;;;;;;;21.71;71.43;102378.34;5221016;28;20026;-82
2021/08/25 10:13:05;;;;;;;9.60;3.60;;;;;;;21.71;83.28;102372.88;5224455;28;20494;-80
2021/08/25 10:15:40;;;;;;;9.13;3.33;;;;;;;21.73;79.01;102378.97;5230781;28;20033;-83
2021/08/25 10:18:25;;;;;;;8.50;4.10;;;;;;;21.89;86.55;102370.44;5228117;28;20078;-81
2021/08/25 10:20:58;;;;;;;7.07;3.42;;;;;;;21.96;69.53;102368.56;5219928;28;20433;-81
2021/08/25 10:23:56;;;;;;;7.65;3.97;;;;;;;21.97;70.64;102366.69;5229693;28;20021;-81
2021/08/25 10:26:27;;;;;;;7.38;3.75;;;;;;;22.02;74.83;102361.44;5225409;28;20098;-81
2021/08/25 10:28:59;;;;;;;9.70;3.35;;;;;;;22.26;77.43;102361.97;5226678;28;20029;-82
2021/08/25 10:31:48;;;;;;;11.80;3.90;;;;;;;22.18;76.94;102352.88;5212104;28;20107;-82
2021/08/25 10:34:21;;;;;;;14.57;4.07;;;;;;;22.22;86.13;102365.09;5225988;28;20044;-81
2021/08/25 10:37:12;;;;;;;11.05;3.88;;;;;;;22.32;93.28;102361.97;5227470;28;20263;-82
2021/08/25 10:39:43;;;;;;;14.20;4.65;;;;;;;22.58;68.91;102354.84;5226707;28;20025;-83
2021/08/25 10:42:13;;;;;;;12.80;4.55;;;;;;;22.63;73.38;102346.84;5226195;28;20047;-82
2021/08/25 10:44:44;;;;;;;9.38;3.97;;;;;;;22.51;64.97;102346.66;5230903;28;20040;-83
2021/08/25 10:47:17;;;;;;;5.75;3.33;;;;;;;22.58;63.50;102342.00;5230916;28;20021;-83
2021/08/25 10:49:48;;;;;;;8.80;3.33;;;;;;;22.51;66.68;102338.44;5230544;28;20029;-83
2021/08/25 10:52:18;;;;;;;8.55;3.88;;;;;;;22.69;66.42;102332.31;5231352;28;20025;-84
2021/08/25 10:54:50;;;;;;;10.52;3.60;;;;;;;22.78;68.25;102333.81;5231544;28;20028;-83
2021/08/25 10:57:23;;;;;;;7.32;3.38;;;;;;;22.86;66.47;102333.59;5224025;28;20038;-83
2021/08/25 11:00:06;;;;;;;8.95;3.55;;;;;;;22.98;66.46;102320.13;5225014;28;20021;-84
2021/08/25 11:02:39;;;;;;;11.65;4.65;;;;;;;23.16;64.40;102325.78;5231225;28;20386;-84
2021/08/25 11:05:10;;;;;;;11.50;4.20;;;;;;;23.25;69.20;102324.50;5231285;28;20016;-84
2021/08/25 11:07:42;;;;;;;18.45;4.57;;;;;;;23.22;60.96;102321.34;5232060;28;20024;-83
2021/08/25 11:10:12;;;;;;;15.40;4.30;;;;;;;23.32;60.50;102308.03;5231111;28;20140;-83
2021/08/25 11:12:44;;;;;;;9.55;4.40;;;;;;;23.32;62.29;102309.94;5232174;28;20025;-83
2021/08/25 11:15:15;;;;;;;8.82;3.92;;;;;;;23.30;66.18;102303.84;5210592;28;20033;-83
2021/08/25 11:17:45;;;;;;;10.05;4.22;;;;;;;23.36;69.15;102311.19;5223758;28;20021;-82
2021/08/25 11:20:16;;;;;;;9.77;3.95;;;;;;;23.55;64.50;102303.97;5229626;28;20673;-83
2021/08/25 11:22:54;;;;;;;6.97;3.63;;;;;;;23.47;65.20;102299.56;5230205;28;20033;-82
2021/08/25 11:25:25;;;;;;;12.68;3.50;;;;;;;23.47;66.97;102296.81;5212645;28;20021;-83
2021/08/25 11:27:55;;;;;;;7.28;3.33;;;;;;;23.48;60.77;102288.38;5191751;28;20036;-82
2021/08/25 11:30:28;;;;;;;8.38;4.05;;;;;;;23.64;59.31;102283.50;5220503;28;20029;-83
2021/08/25 11:33:06;;;;;;;9.80;4.35;;;;;;;23.55;59.39;102276.59;5228688;28;20674;-83